Time;durP1;ratioP1;P1;durP2;ratioP2;P2;SDS_P1;SDS_P2;PMS_P1;PMS_P2;Temp;Humidity;BMP_temperature;BMP_pressure;BME280_temperature;BME280_humidity;BME280_pressure;Samples;Min_cycle;Max_cycle;Signal;HPM_P1;HPM_P2
2021/12/01 00:00:44;;;;;;;3.80;3.50;;;;;;;4.07;89.48;96573.81;5100546;28;20228;-74
2021/12/01 00:03:11;;;;;;;3.80;3.53;;;;;;;4.01;90.06;96564.59;5111656;28;20193;-75
2021/12/01 00:05:38;;;;;;;3.33;3.13;;;;;;;4.08;89.54;96567.63;5118865;28;20213;-73
2021/12/01 00:08:06;;;;;;;3.50;3.30;;;;;;;4.06;89.73;96566.91;5113925;28;20248;-75
2021/12/01 00:10:35;;;;;;;3.60;3.30;;;;;;;4.15;89.64;96554.94;5108761;28;20209;-77
2021/12/01 00:13:01;;;;;;;4.10;3.60;;;;;;;4.17;89.37;96547.84;5096136;28;20204;-75
2021/12/01 00:15:28;;;;;;;3.43;3.17;;;;;;;4.17;89.05;96553.06;5096027;28;20548;-74
2021/12/01 00:17:54;;;;;;;3.80;3.50;;;;;;;4.16;89.01;96547.00;5096239;28;20206;-73
2021/12/01 00:20:21;;;;;;;3.50;3.23;;;;;;;4.20;89.08;96547.63;5096743;28;20225;-74
2021/12/01 00:22:48;;;;;;;3.37;3.17;;;;;;;4.23;89.10;96532.53;5099009;28;20204;-72
2021/12/01 00:25:18;;;;;;;3.23;3.03;;;;;;;4.13;89.35;96525.44;5104237;28;20217;-74
2021/12/01 00:27:45;;;;;;;3.17;2.90;;;;;;;4.10;90.32;96520.41;5082559;28;20209;-77
2021/12/01 00:30:12;;;;;;;3.10;2.90;;;;;;;4.11;90.65;96512.44;5096827;28;20292;-75
2021/12/01 00:32:39;;;;;;;3.47;3.17;;;;;;;4.10;90.10;96510.78;5098896;28;20609;-75
2021/12/01 00:35:07;;;;;;;2.77;2.57;;;;;;;4.15;90.12;96503.44;5107230;28;20214;-76
2021/12/01 00:37:33;;;;;;;3.40;3.10;;;;;;;4.12;90.18;96498.44;5099121;28;20205;-74
2021/12/01 00:40:00;;;;;;;3.23;2.97;;;;;;;4.18;89.96;96507.66;5098765;28;20206;-75
2021/12/01 00:42:28;;;;;;;3.03;2.83;;;;;;;4.26;89.59;96500.06;5098687;28;20208;-74
2021/12/01 00:44:57;;;;;;;3.00;2.80;;;;;;;4.19;89.43;96493.59;5104809;28;20559;-74
2021/12/01 00:47:31;;;;;;;3.17;2.97;;;;;;;4.31;89.45;96500.59;5099826;28;20213;-76
2021/12/01 00:49:58;;;;;;;3.33;3.03;;;;;;;4.27;89.49;96507.00;5099309;28;20197;-78
2021/12/01 00:52:26;;;;;;;3.40;2.97;;;;;;;4.32;88.97;96495.22;5098248;28;20241;-73
2021/12/01 00:54:53;;;;;;;3.10;2.90;;;;;;;4.29;89.42;96494.63;5102397;28;20259;-77
2021/12/01 00:57:19;;;;;;;3.17;2.97;;;;;;;4.27;89.75;96484.28;5098282;28;20209;-75
2021/12/01 00:59:47;;;;;;;3.10;2.90;;;;;;;4.36;89.41;96469.69;5098442;28;20221;-75
2021/12/01 01:02:14;;;;;;;2.97;2.77;;;;;;;4.35;89.68;96460.19;5098288;28;20226;-75
2021/12/01 01:04:41;;;;;;;2.93;2.73;;;;;;;4.42;89.38;96457.00;5109812;28;20206;-75
2021/12/01 01:07:07;;;;;;;3.47;3.20;;;;;;;4.47;89.72;96448.81;5111991;28;20304;-77
2021/12/01 01:09:34;;;;;;;2.50;2.40;;;;;;;4.46;90.10;96449.78;5099635;28;20216;-75
2021/12/01 01:17:37;;;;;;;2.77;2.57;;;;;;;4.49;90.54;96460.03;5098042;28;20208;-76
2021/12/01 01:20:05;;;;;;;2.80;2.60;;;;;;;4.45;90.69;96454.16;5098677;28;20197;-74
2021/12/01 01:22:32;;;;;;;2.80;2.60;;;;;;;4.42;91.05;96441.31;5102106;28;20547;-73
2021/12/01 01:24:59;;;;;;;3.57;2.70;;;;;;;4.43;91.27;96449.97;5115486;28;20215;-75
2021/12/01 01:27:25;;;;;;;2.60;2.40;;;;;;;4.39;91.36;96443.31;5110592;28;20216;-73
2021/12/01 01:29:52;;;;;;;2.73;2.53;;;;;;;4.37;91.78;96434.72;5120112;28;20185;-77
2021/12/01 01:32:18;;;;;;;3.07;2.53;;;;;;;4.52;91.28;96428.38;5120223;28;20193;-75
2021/12/01 01:34:46;;;;;;;2.50;2.40;;;;;;;4.48;91.40;96427.75;5104548;28;20197;-74
2021/12/01 01:37:12;;;;;;;2.43;2.33;;;;;;;4.48;91.56;96426.91;5098864;28;20272;-74
2021/12/01 01:39:39;;;;;;;2.20;2.10;;;;;;;4.48;91.82;96421.69;5098190;28;20224;-76
2021/12/01 01:42:06;;;;;;;2.60;2.40;;;;;;;4.46;91.96;96420.97;5097019;28;20239;-77
2021/12/01 01:44:32;;;;;;;2.40;2.30;;;;;;;4.55;90.41;96414.22;5105374;28;20211;-75
2021/12/01 01:46:59;;;;;;;2.33;2.23;;;;;;;4.72;89.89;96403.34;5101646;28;20221;-76
2021/12/01 01:49:38;;;;;;;2.40;2.20;;;;;;;4.67;90.55;96403.69;5097292;28;20220;-77
2021/12/01 01:52:06;;;;;;;2.50;2.30;;;;;;;4.67;90.80;96395.84;5096964;28;20256;-74
2021/12/01 01:54:33;;;;;;;2.07;1.97;;;;;;;4.65;90.83;96387.25;5099832;28;20201;-69
2021/12/01 01:56:59;;;;;;;2.30;2.20;;;;;;;4.67;91.15;96389.75;5100129;28;20213;-74
2021/12/01 01:59:25;;;;;;;2.10;2.00;;;;;;;4.69;90.59;96380.84;5098013;28;20202;-76
2021/12/01 02:01:56;;;;;;;2.53;2.10;;;;;;;4.71;90.47;96386.78;5097850;28;20232;-77
2021/12/01 02:04:23;;;;;;;2.87;2.20;;;;;;;4.69;90.77;96372.97;5098716;28;20202;-75
2021/12/01 02:06:50;;;;;;;2.30;2.10;;;;;;;4.76;91.02;96370.72;5093228;28;20307;-73
2021/12/01 02:09:21;;;;;;;2.43;2.33;;;;;;;4.76;90.56;96370.72;5097064;28;20205;-73
2021/12/01 02:11:48;;;;;;;2.63;2.43;;;;;;;4.77;90.81;96369.78;5083795;28;20198;-77
2021/12/01 02:14:16;;;;;;;2.73;2.50;;;;;;;4.75;91.11;96356.78;5101148;28;20637;-74
2021/12/01 02:16:42;;;;;;;2.37;2.23;;;;;;;4.76;90.95;96355.84;5097468;28;20211;-73
2021/12/01 02:19:09;;;;;;;2.93;2.73;;;;;;;4.76;90.39;96350.63;5097927;28;20669;-75
2021/12/01 02:21:37;;;;;;;3.33;3.13;;;;;;;4.75;89.54;96350.72;5097972;28;20536;-77
2021/12/01 02:24:06;;;;;;;3.10;2.90;;;;;;;4.91;88.24;96328.50;5099678;28;20293;-73
2021/12/01 02:26:34;;;;;;;2.90;2.80;;;;;;;4.91;88.54;96325.88;5097587;28;20224;-73
2021/12/01 02:29:03;;;;;;;3.10;2.90;;;;;;;4.89;88.69;96322.53;5097086;28;20526;-73
2021/12/01 02:31:33;;;;;;;3.10;2.80;;;;;;;4.90;88.61;96308.50;5096570;28;20201;-74
2021/12/01 02:34:00;;;;;;;2.70;2.60;;;;;;;4.88;88.46;96297.31;5107439;28;20197;-74
2021/12/01 02:36:27;;;;;;;3.00;2.80;;;;;;;4.85;88.95;96288.84;5096903;28;20209;-73
2021/12/01 02:38:55;;;;;;;3.03;2.80;;;;;;;4.82;88.93;96283.81;5097905;28;20209;-76
2021/12/01 02:41:27;;;;;;;3.27;3.07;;;;;;;4.83;89.30;96275.84;5098020;28;20240;-73
2021/12/01 02:43:54;;;;;;;2.87;2.67;;;;;;;4.84;88.37;96271.47;5096193;28;20208;-76
2021/12/01 02:46:20;;;;;;;2.83;2.63;;;;;;;4.84;88.53;96261.81;5096628;28;20225;-76
2021/12/01 02:48:47;;;;;;;2.77;2.60;;;;;;;4.94;87.73;96249.69;5095899;28;20213;-74
2021/12/01 02:51:13;;;;;;;2.53;2.40;;;;;;;4.97;86.83;96245.97;5095610;28;20234;-75
2021/12/01 02:53:41;;;;;;;2.70;2.50;;;;;;;5.01;87.37;96242.16;5096150;28;20227;-73
2021/12/01 02:56:09;;;;;;;2.77;2.57;;;;;;;5.10;86.26;96230.97;5097005;28;20202;-73
2021/12/01 02:58:40;;;;;;;2.67;2.53;;;;;;;5.01;87.24;96215.97;5096869;28;20207;-75
2021/12/01 03:01:09;;;;;;;2.40;2.20;;;;;;;5.05;87.15;96220.03;5095696;28;20213;-75
2021/12/01 03:03:36;;;;;;;2.47;2.33;;;;;;;5.07;86.60;96215.47;5096570;28;20216;-73
2021/12/01 03:06:03;;;;;;;2.10;2.00;;;;;;;5.20;86.11;96221.44;5108655;28;20213;-76
2021/12/01 03:08:29;;;;;;;2.33;2.13;;;;;;;5.28;85.48;96208.53;5082977;28;20274;-75
2021/12/01 03:10:56;;;;;;;2.37;2.17;;;;;;;5.24;85.87;96208.94;5108835;28;20543;-73
2021/12/01 03:13:25;;;;;;;2.20;2.10;;;;;;;5.25;85.09;96197.47;5084067;28;20209;-73
2021/12/01 03:15:52;;;;;;;1.97;1.87;;;;;;;5.26;85.35;96205.22;5097364;28;20213;-74
2021/12/01 03:18:19;;;;;;;2.00;1.80;;;;;;;5.18;86.04;96207.59;5099879;28;20210;-73
2021/12/01 03:20:47;;;;;;;2.17;2.07;;;;;;;5.12;86.26;96202.03;5123313;28;20208;-76
2021/12/01 03:23:14;;;;;;;2.03;1.93;;;;;;;5.13;86.37;96198.47;5128371;28;20212;-74
2021/12/01 03:25:40;;;;;;;2.03;1.83;;;;;;;5.10;86.29;96194.25;5099805;28;20228;-77
2021/12/01 03:28:08;;;;;;;1.63;1.53;;;;;;;5.05;86.30;96190.34;5095717;28;20197;-76
2021/12/01 03:30:37;;;;;;;1.50;1.40;;;;;;;5.00;86.57;96194.16;5100531;28;20209;-73
2021/12/01 03:33:06;;;;;;;3.33;1.80;;;;;;;5.01;86.01;96195.00;5089021;28;20203;-77
2021/12/01 03:35:33;;;;;;;1.90;1.80;;;;;;;5.00;86.37;96188.91;5108818;28;20181;-74
2021/12/01 03:37:59;;;;;;;1.60;1.50;;;;;;;4.97;86.57;96178.69;5110315;28;20202;-75
2021/12/01 03:40:26;;;;;;;1.80;1.70;;;;;;;4.95;86.04;96179.78;5098565;28;20225;-75
2021/12/01 03:42:52;;;;;;;2.00;1.90;;;;;;;5.03;85.56;96177.34;5108447;28;20248;-74
2021/12/01 03:45:19;;;;;;;1.87;1.77;;;;;;;5.17;84.90;96181.53;5079237;28;20198;-75
2021/12/01 03:47:47;;;;;;;2.13;2.03;;;;;;;5.16;84.64;96177.25;5096445;28;20205;-78
2021/12/01 03:50:14;;;;;;;2.10;2.00;;;;;;;5.00;85.31;96172.38;5093156;28;20275;-73
2021/12/01 03:52:40;;;;;;;1.80;1.70;;;;;;;4.96;85.42;96156.06;5104856;28;20230;-75
2021/12/01 03:55:08;;;;;;;2.17;2.07;;;;;;;4.92;85.94;96154.63;5095911;28;20206;-77
2021/12/01 03:57:35;;;;;;;2.40;2.23;;;;;;;4.84;86.18;96151.78;5092285;28;20668;-73
2021/12/01 04:00:02;;;;;;;1.83;1.73;;;;;;;4.82;86.60;96147.59;5095454;28;20231;-76
2021/12/01 04:02:29;;;;;;;2.13;2.00;;;;;;;4.78;86.53;96136.53;5101550;28;20221;-74
2021/12/01 04:04:57;;;;;;;2.40;2.20;;;;;;;4.65;87.07;96133.22;5098895;28;20202;-75
2021/12/01 04:07:23;;;;;;;2.63;2.37;;;;;;;4.65;87.18;96135.84;5108548;28;20209;-74
2021/12/01 04:09:50;;;;;;;2.47;2.37;;;;;;;4.68;86.90;96125.13;5099101;28;20635;-73
2021/12/01 04:12:17;;;;;;;2.07;1.97;;;;;;;4.61;87.22;96123.94;5103686;28;20600;-76
2021/12/01 04:14:44;;;;;;;2.70;2.50;;;;;;;4.55;87.63;96124.41;5100285;28;20224;-74
2021/12/01 04:17:10;;;;;;;2.07;1.97;;;;;;;4.51;87.67;96122.97;5100073;28;20206;-76
2021/12/01 04:19:37;;;;;;;2.63;2.43;;;;;;;4.55;87.27;96116.56;5099259;28;20533;-77
2021/12/01 04:22:06;;;;;;;2.10;2.00;;;;;;;4.63;87.50;96115.97;5101604;28;20226;-77
2021/12/01 04:24:32;;;;;;;2.30;2.20;;;;;;;4.62;87.17;96115.13;5098622;28;20601;-74
2021/12/01 04:26:59;;;;;;;2.20;2.10;;;;;;;4.71;86.99;96113.59;5099028;28;20217;-75
2021/12/01 04:29:26;;;;;;;2.20;2.10;;;;;;;4.86;85.86;96102.72;5098478;28;20220;-75
2021/12/01 04:31:53;;;;;;;2.07;1.97;;;;;;;4.77;86.62;96105.25;5099707;28;20234;-76
2021/12/01 04:34:20;;;;;;;2.20;2.10;;;;;;;4.67;86.59;96097.28;5099838;28;20213;-75
2021/12/01 04:36:48;;;;;;;2.53;2.33;;;;;;;4.64;86.93;96091.44;5099970;28;20298;-73
2021/12/01 04:39:18;;;;;;;2.10;2.00;;;;;;;4.64;87.19;96097.50;5099419;28;20210;-77
2021/12/01 04:41:51;;;;;;;2.10;1.90;;;;;;;4.64;87.62;96092.25;5107435;28;20658;-77
2021/12/01 04:44:19;;;;;;;2.20;2.10;;;;;;;4.69;87.15;96095.38;5099095;28;20202;-74
2021/12/01 04:46:46;;;;;;;1.97;1.87;;;;;;;4.76;86.74;96088.69;5098939;28;20213;-76
2021/12/01 04:49:15;;;;;;;2.00;1.90;;;;;;;4.73;87.04;96080.25;5085910;28;20296;-72
2021/12/01 04:51:44;;;;;;;2.03;1.93;;;;;;;4.72;87.12;96076.78;5108462;28;20229;-77
2021/12/01 04:54:11;;;;;;;2.50;2.30;;;;;;;4.67;87.55;96085.97;5100715;28;20202;-75
2021/12/01 04:56:39;;;;;;;2.63;2.43;;;;;;;4.70;87.71;96080.50;5085856;28;20202;-77
2021/12/01 04:59:06;;;;;;;2.00;1.90;;;;;;;4.67;88.41;96071.09;5099751;28;20205;-77
2021/12/01 05:01:34;;;;;;;2.47;2.27;;;;;;;4.67;88.55;96065.03;5103380;28;20237;-74
2021/12/01 05:04:01;;;;;;;2.23;2.13;;;;;;;4.69;88.12;96066.56;5097455;28;20214;-76
2021/12/01 05:06:27;;;;;;;2.30;2.10;;;;;;;4.69;88.09;96052.63;5111004;28;20208;-74
2021/12/01 05:08:54;;;;;;;1.97;1.87;;;;;;;4.74;88.35;96056.56;5102931;28;20210;-74
2021/12/01 05:11:20;;;;;;;2.07;1.97;;;;;;;4.74;88.52;96056.56;5111955;28;20422;-77
2021/12/01 05:13:48;;;;;;;2.20;2.10;;;;;;;4.75;88.79;96050.34;5108530;28;20209;-74
2021/12/01 05:16:15;;;;;;;1.70;1.60;;;;;;;4.72;88.85;96057.63;5083658;28;20206;-75
2021/12/01 05:18:41;;;;;;;2.07;1.97;;;;;;;4.69;88.54;96050.84;5097933;28;20217;-75
2021/12/01 05:21:08;;;;;;;2.10;1.90;;;;;;;4.72;88.12;96047.13;5107353;28;20205;-75
2021/12/01 05:23:34;;;;;;;2.10;2.00;;;;;;;4.69;87.70;96045.59;5098614;28;20226;-75
2021/12/01 05:26:01;;;;;;;2.20;2.10;;;;;;;4.74;87.55;96038.22;5099399;28;20224;-75
2021/12/01 05:28:28;;;;;;;2.40;2.20;;;;;;;4.71;87.93;96048.91;5087960;28;20256;-77
2021/12/01 05:30:56;;;;;;;2.20;2.10;;;;;;;4.72;88.25;96042.75;5099899;28;20296;-74
2021/12/01 05:33:22;;;;;;;2.13;2.03;;;;;;;4.72;88.20;96042.75;5099262;28;20206;-76
2021/12/01 05:35:49;;;;;;;2.03;1.93;;;;;;;4.67;88.78;96038.84;5102190;28;20216;-73
2021/12/01 05:38:16;;;;;;;2.50;2.30;;;;;;;4.65;88.28;96036.31;5106799;28;20213;-76
2021/12/01 05:40:43;;;;;;;2.27;2.13;;;;;;;4.66;88.68;96029.31;5116253;28;20205;-72
2021/12/01 05:43:09;;;;;;;2.70;2.47;;;;;;;4.63;88.70;96024.31;5111468;28;20217;-75
2021/12/01 05:45:38;;;;;;;2.67;2.47;;;;;;;4.60;87.91;96022.78;5098122;28;20205;-75
2021/12/01 05:48:06;;;;;;;2.70;2.50;;;;;;;4.62;87.87;96023.47;5098622;28;20267;-75
2021/12/01 05:50:33;;;;;;;2.70;2.60;;;;;;;4.61;87.35;96019.19;5098973;28;20628;-76
2021/12/01 05:52:59;;;;;;;2.70;2.50;;;;;;;4.58;87.81;96011.59;5107230;28;20209;-76
2021/12/01 05:55:26;;;;;;;2.63;2.50;;;;;;;4.60;87.72;96014.94;5097819;28;20237;-77
2021/12/01 05:57:52;;;;;;;3.30;3.10;;;;;;;4.62;87.12;96012.16;5098962;28;20201;-74
2021/12/01 06:00:19;;;;;;;2.87;2.67;;;;;;;4.63;87.12;96014.69;5097532;28;20213;-76
2021/12/01 06:02:49;;;;;;;3.30;3.10;;;;;;;4.63;87.25;96011.22;5101209;28;20226;-74
2021/12/01 06:05:17;;;;;;;2.90;2.70;;;;;;;4.64;86.81;96005.03;5102937;28;20204;-76
2021/12/01 06:07:44;;;;;;;3.00;2.73;;;;;;;4.57;87.20;96007.28;5104331;28;20213;-75
2021/12/01 06:10:11;;;;;;;3.20;3.00;;;;;;;4.57;87.61;96002.06;5097228;28;20224;-72
2021/12/01 06:12:39;;;;;;;3.13;2.93;;;;;;;4.56;87.42;96005.66;5123067;28;20181;-77
2021/12/01 06:15:07;;;;;;;3.07;2.90;;;;;;;4.57;87.84;95988.97;5117750;28;20198;-77
2021/12/01 06:17:36;;;;;;;3.03;2.83;;;;;;;4.64;87.14;95989.31;5117826;28;20259;-76
2021/12/01 06:20:03;;;;;;;3.20;3.00;;;;;;;4.56;87.22;95983.88;5118038;28;20202;-73
2021/12/01 06:22:31;;;;;;;3.13;2.80;;;;;;;4.52;87.16;95983.28;5108131;28;20224;-73
2021/12/01 06:24:58;;;;;;;3.23;2.93;;;;;;;4.53;86.51;95974.47;5097981;28;20206;-76
2021/12/01 06:27:25;;;;;;;2.83;2.73;;;;;;;4.56;86.33;95963.75;5112426;28;20198;-75
2021/12/01 06:29:52;;;;;;;3.10;2.90;;;;;;;4.71;85.35;95972.97;5117735;28;20228;-77
2021/12/01 06:32:19;;;;;;;2.63;2.53;;;;;;;4.57;85.87;95970.63;5128325;28;20265;-75
2021/12/01 06:34:45;;;;;;;2.80;2.60;;;;;;;4.53;86.40;95969.25;5138989;28;20201;-76
2021/12/01 06:37:12;;;;;;;3.00;2.80;;;;;;;4.50;86.23;95964.22;5138316;28;20200;-76
2021/12/01 06:39:40;;;;;;;2.97;2.77;;;;;;;4.46;86.34;95968.88;5124677;28;20609;-76
2021/12/01 06:42:06;;;;;;;2.60;2.50;;;;;;;4.49;86.46;95962.59;5102520;28;20225;-78
2021/12/01 06:44:33;;;;;;;2.57;2.37;;;;;;;4.43;87.11;95963.88;5097578;28;20209;-78
2021/12/01 06:47:02;;;;;;;3.50;3.30;;;;;;;4.40;87.28;95953.66;5097619;28;20605;-77
2021/12/01 06:49:28;;;;;;;3.27;3.07;;;;;;;4.37;87.54;95953.06;5087166;28;20206;-73
2021/12/01 06:51:55;;;;;;;4.33;2.90;;;;;;;4.37;87.60;95947.84;5087984;28;20599;-78
2021/12/01 06:54:22;;;;;;;3.03;2.83;;;;;;;4.38;87.96;95958.19;5099208;28;20213;-76
2021/12/01 06:56:49;;;;;;;2.87;2.67;;;;;;;4.35;87.94;95955.00;5097037;28;20205;-76
2021/12/01 06:59:16;;;;;;;5.43;3.00;;;;;;;4.29;89.01;95958.09;5097917;28;20216;-75
2021/12/01 07:01:42;;;;;;;3.03;2.67;;;;;;;4.26;89.51;95960.94;5084249;28;20213;-75
2021/12/01 07:04:10;;;;;;;3.10;2.90;;;;;;;4.18;89.98;95952.88;5096972;28;20676;-73
2021/12/01 07:06:36;;;;;;;3.23;2.87;;;;;;;4.20;90.02;95945.72;5097148;28;20221;-76
2021/12/01 07:09:04;;;;;;;3.30;3.10;;;;;;;4.12;89.88;95937.66;5096418;28;20620;-73
2021/12/01 07:11:31;;;;;;;2.93;2.73;;;;;;;4.13;90.55;95936.72;5097640;28;20205;-74
2021/12/01 07:13:59;;;;;;;4.50;3.23;;;;;;;3.99;90.60;95936.03;5106265;28;20201;-74
2021/12/01 07:16:27;;;;;;;3.20;3.00;;;;;;;4.11;89.24;95946.47;5096295;28;20314;-76
2021/12/01 07:18:54;;;;;;;3.10;2.90;;;;;;;4.15;87.94;95947.88;5101626;28;20250;-74
2021/12/01 07:21:20;;;;;;;3.83;3.53;;;;;;;4.06;88.68;95938.97;5099623;28;20225;-77
2021/12/01 07:23:46;;;;;;;3.13;2.93;;;;;;;4.06;89.98;95943.38;5084911;28;20237;-74
2021/12/01 07:26:13;;;;;;;3.30;3.00;;;;;;;4.08;89.84;95931.84;5094685;28;20205;-78
2021/12/01 07:28:39;;;;;;;3.80;3.50;;;;;;;4.07;89.97;95926.72;5100448;28;20200;-78
2021/12/01 07:31:07;;;;;;;3.57;3.27;;;;;;;4.03;91.70;95922.69;5098961;28;20651;-77
2021/12/01 07:33:34;;;;;;;3.30;3.10;;;;;;;4.13;91.00;95921.00;5097170;28;20198;-75
2021/12/01 07:36:01;;;;;;;3.33;3.13;;;;;;;4.18;91.01;95905.78;5101244;28;20201;-75
2021/12/01 07:38:27;;;;;;;4.03;3.67;;;;;;;4.17;90.71;95904.13;5085287;28;20202;-77
2021/12/01 07:40:54;;;;;;;3.30;3.00;;;;;;;4.35;90.63;95892.19;5099237;28;20224;-77
2021/12/01 07:43:20;;;;;;;4.10;3.80;;;;;;;4.45;90.63;95885.25;5112515;28;20212;-75
2021/12/01 07:45:47;;;;;;;4.00;3.70;;;;;;;4.58;89.81;95885.06;5112175;28;20216;-77
2021/12/01 07:48:15;;;;;;;4.10;3.80;;;;;;;4.67;89.90;95872.06;5113000;28;20205;-75
2021/12/01 07:50:42;;;;;;;4.33;3.93;;;;;;;4.71;89.82;95867.41;5096622;28;20210;-77
2021/12/01 07:53:09;;;;;;;4.17;3.77;;;;;;;4.86;89.91;95871.38;5111193;28;20536;-74
2021/12/01 07:55:35;;;;;;;4.43;4.03;;;;;;;4.93;90.07;95862.88;5107613;28;20261;-75
2021/12/01 07:58:02;;;;;;;3.63;3.37;;;;;;;5.01;89.99;95857.84;5102823;28;20212;-76
2021/12/01 08:00:29;;;;;;;4.23;3.83;;;;;;;5.08;89.73;95852.06;5104265;28;20209;-76
2021/12/01 08:02:56;;;;;;;3.73;3.43;;;;;;;5.15;89.26;95846.19;5102232;28;20312;-75
2021/12/01 08:05:24;;;;;;;3.47;3.27;;;;;;;5.28;88.69;95851.25;5104476;28;20197;-77
2021/12/01 08:07:51;;;;;;;3.20;3.00;;;;;;;5.35;87.56;95826.16;5088182;28;20207;-77
2021/12/01 08:10:18;;;;;;;2.77;2.57;;;;;;;5.48;87.22;95837.25;5099905;28;20573;-77
2021/12/01 08:12:44;;;;;;;4.13;2.43;;;;;;;5.59;84.74;95823.22;5103959;28;20284;-78
2021/12/01 08:15:11;;;;;;;2.30;2.20;;;;;;;5.61;83.14;95816.88;5099921;28;20212;-75
2021/12/01 08:17:37;;;;;;;1.90;1.80;;;;;;;5.76;81.97;95820.78;5090214;28;20206;-74
2021/12/01 08:20:05;;;;;;;1.70;1.60;;;;;;;5.79;81.01;95815.28;5099841;28;20206;-74
2021/12/01 08:22:33;;;;;;;1.90;1.80;;;;;;;5.80;78.52;95805.63;5099289;28;20213;-74
2021/12/01 08:24:59;;;;;;;2.00;1.80;;;;;;;5.90;79.65;95809.13;5088090;28;20205;-76
2021/12/01 08:27:26;;;;;;;1.77;1.67;;;;;;;5.92;79.07;95805.38;5099992;28;20204;-76
2021/12/01 08:29:53;;;;;;;1.90;1.80;;;;;;;6.06;78.76;95795.47;5099590;28;20651;-76
2021/12/01 08:32:20;;;;;;;1.60;1.50;;;;;;;6.19;77.23;95788.16;5099430;28;20652;-74
2021/12/01 08:34:49;;;;;;;1.70;1.60;;;;;;;6.26;76.93;95782.25;5099437;28;20279;-75
2021/12/01 08:37:18;;;;;;;1.73;1.63;;;;;;;6.38;76.39;95768.00;5099807;28;20595;-76
2021/12/01 08:39:48;;;;;;;1.50;1.40;;;;;;;6.42;76.68;95771.16;5109272;28;20220;-74
2021/12/01 08:42:14;;;;;;;2.20;2.00;;;;;;;6.39;78.10;95772.28;5098827;28;20209;-74
2021/12/01 08:44:44;;;;;;;1.73;1.63;;;;;;;6.38;78.37;95769.78;5110462;28;20240;-74
2021/12/01 08:47:11;;;;;;;1.27;1.27;;;;;;;6.26;76.89;95771.72;5101334;28;20202;-74
2021/12/01 08:49:38;;;;;;;2.73;2.53;;;;;;;6.29;75.86;95750.44;5099024;28;20263;-74
2021/12/01 08:52:05;;;;;;;1.70;1.60;;;;;;;6.35;76.18;95747.25;5104889;28;20230;-75
2021/12/01 08:54:32;;;;;;;1.50;1.40;;;;;;;6.48;75.09;95739.13;5105746;28;20194;-75
2021/12/01 08:57:00;;;;;;;1.03;1.03;;;;;;;7.01;73.62;95732.34;5098767;28;20644;-76
2021/12/01 08:59:26;;;;;;;1.60;1.50;;;;;;;7.82;71.65;95722.81;5106895;28;20201;-74
2021/12/01 09:01:53;;;;;;;1.20;1.20;;;;;;;8.11;69.53;95705.97;5099288;28;20221;-75
2021/12/01 09:04:19;;;;;;;1.10;1.10;;;;;;;8.36;68.61;95707.88;5099499;28;20221;-74
2021/12/01 09:06:46;;;;;;;1.20;1.20;;;;;;;8.76;66.41;95702.91;5098476;28;20217;-75
2021/12/01 09:09:18;;;;;;;1.73;1.20;;;;;;;8.94;66.57;95694.94;5103459;28;20193;-75
2021/12/01 09:11:44;;;;;;;1.67;1.43;;;;;;;8.84;66.93;95700.31;5085926;28;20205;-77
2021/12/01 09:14:12;;;;;;;1.40;1.30;;;;;;;8.81;68.00;95700.63;5108015;28;20200;-76
2021/12/01 09:16:39;;;;;;;1.70;1.60;;;;;;;9.15;67.27;95697.19;5085474;28;20229;-75
2021/12/01 09:19:05;;;;;;;1.10;1.10;;;;;;;9.30;64.99;95690.34;5101554;28;20638;-75
2021/12/01 09:21:32;;;;;;;1.40;1.33;;;;;;;9.12;66.09;95684.31;5098111;28;20629;-78
2021/12/01 09:23:58;;;;;;;11.53;10.20;;;;;;;8.84;66.47;95673.97;5096367;28;20223;-78
2021/12/01 09:26:25;;;;;;;0.97;0.93;;;;;;;8.83;66.28;95682.84;5100828;28;20213;-77
2021/12/01 09:28:51;;;;;;;1.60;1.50;;;;;;;8.94;66.19;95679.94;5098357;28;20228;-77
2021/12/01 09:31:20;;;;;;;1.67;1.53;;;;;;;8.86;65.53;95674.63;5093611;28;20204;-75
2021/12/01 09:33:46;;;;;;;1.50;1.40;;;;;;;8.92;65.81;95681.09;5099779;28;20206;-75
2021/12/01 09:36:13;;;;;;;1.17;1.07;;;;;;;9.26;64.45;95667.91;5102412;28;20208;-78
2021/12/01 09:38:40;;;;;;;1.63;1.53;;;;;;;9.35;65.36;95664.31;5103830;28;20205;-76
2021/12/01 09:41:06;;;;;;;2.17;1.70;;;;;;;9.11;66.76;95659.75;5098735;28;20222;-76
2021/12/01 09:43:33;;;;;;;2.80;2.60;;;;;;;8.79;66.20;95660.41;5114750;28;20212;-74
2021/12/01 09:46:04;;;;;;;2.50;2.30;;;;;;;8.69;65.59;95641.25;5120284;28;20198;-75
2021/12/01 09:48:32;;;;;;;1.50;1.40;;;;;;;8.54;66.52;95639.34;5099985;28;20215;-76
2021/12/01 09:50:59;;;;;;;1.40;1.30;;;;;;;8.52;65.98;95626.31;5097631;28;20241;-75
2021/12/01 09:53:25;;;;;;;1.67;1.57;;;;;;;8.50;67.22;95644.13;5097700;28;20542;-75
2021/12/01 09:55:52;;;;;;;1.60;1.50;;;;;;;8.27;66.47;95632.38;5103600;28;20532;-75
2021/12/01 09:58:22;;;;;;;2.00;1.43;;;;;;;8.16;67.10;95614.19;5098286;28;20207;-75
2021/12/01 10:00:51;;;;;;;1.90;1.80;;;;;;;8.27;66.97;95629.75;5088032;28;20237;-74
2021/12/01 10:03:18;;;;;;;1.80;1.70;;;;;;;8.26;67.29;95614.91;5096769;28;20232;-78
2021/12/01 10:05:59;;;;;;;1.80;1.70;;;;;;;8.30;68.03;95611.84;5099140;28;20201;-74
2021/12/01 10:08:27;;;;;;;2.00;1.90;;;;;;;8.50;66.78;95597.47;5099725;28;20271;-77
2021/12/01 10:10:55;;;;;;;1.93;1.83;;;;;;;8.46;67.12;95597.97;5106819;28;20207;-77
2021/12/01 10:13:27;;;;;;;2.30;2.20;;;;;;;8.91;66.72;95600.34;5084457;28;20556;-76
2021/12/01 10:15:55;;;;;;;2.10;2.00;;;;;;;10.00;65.21;95600.09;5098524;28;20212;-75
2021/12/01 10:18:22;;;;;;;2.47;2.20;;;;;;;10.82;60.93;95583.16;5098013;28;20216;-75
2021/12/01 10:20:59;;;;;;;2.10;2.00;;;;;;;11.16;58.82;95576.75;5100516;28;20235;-77
2021/12/01 10:23:26;;;;;;;3.07;2.07;;;;;;;11.47;56.92;95575.75;5097249;28;20210;-75
2021/12/01 10:25:52;;;;;;;2.53;2.33;;;;;;;11.18;58.17;95569.47;5097141;28;20210;-75
2021/12/01 10:28:33;;;;;;;1.90;1.80;;;;;;;10.52;59.34;95576.00;5097243;28;20526;-77
2021/12/01 10:30:59;;;;;;;2.13;2.03;;;;;;;10.52;61.51;95570.69;5092531;28;20197;-75
2021/12/01 10:33:29;;;;;;;2.67;2.10;;;;;;;10.20;59.82;95552.25;5102210;28;20206;-75
2021/12/01 10:35:59;;;;;;;2.33;2.23;;;;;;;9.87;62.02;95541.69;5103265;28;20201;-76
2021/12/01 10:38:26;;;;;;;2.20;2.00;;;;;;;10.10;63.69;95548.91;5098966;28;20206;-76
2021/12/01 10:41:02;;;;;;;2.23;2.10;;;;;;;11.23;59.35;95530.09;5100703;28;20200;-77
2021/12/01 10:43:36;;;;;;;2.30;2.20;;;;;;;12.37;56.32;95509.66;5104916;28;20213;-77
2021/12/01 10:46:07;;;;;;;1.70;1.60;;;;;;;12.56;54.65;95508.28;5101812;28;20220;-75
2021/12/01 10:48:34;;;;;;;2.00;1.90;;;;;;;12.53;55.36;95490.94;5103374;28;20540;-77
2021/12/01 10:51:03;;;;;;;1.80;1.70;;;;;;;13.02;53.02;95477.06;5102930;28;20237;-77
2021/12/01 10:53:30;;;;;;;1.65;1.55;;;;;;;12.89;52.51;95467.91;5098572;28;20193;-76
2021/12/01 10:55:58;;;;;;;1.75;1.65;;;;;;;12.32;53.11;95453.72;5103556;28;20280;-74
2021/12/01 10:58:32;;;;;;;1.83;1.73;;;;;;;12.00;54.79;95436.34;5092768;28;20537;-76
2021/12/01 11:01:00;;;;;;;1.60;1.50;;;;;;;11.61;56.65;95449.75;5096014;28;20250;-76
2021/12/01 11:03:30;;;;;;;1.70;1.60;;;;;;;11.15;57.75;95437.53;5102676;28;20664;-77
2021/12/01 11:05:58;;;;;;;1.70;1.60;;;;;;;10.58;60.19;95437.03;5108461;28;20201;-76
2021/12/01 11:08:29;;;;;;;1.73;1.63;;;;;;;10.44;61.36;95459.72;5097594;28;20198;-75
2021/12/01 11:10:58;;;;;;;2.00;1.90;;;;;;;10.06;63.17;95431.41;5107218;28;20204;-76
2021/12/01 11:13:26;;;;;;;1.93;1.83;;;;;;;9.95;63.23;95412.25;5111368;28;20557;-76
2021/12/01 11:15:54;;;;;;;2.23;2.13;;;;;;;9.74;63.26;95416.47;5102550;28;20209;-76
2021/12/01 11:18:23;;;;;;;1.90;1.80;;;;;;;9.84;61.89;95410.00;5097289;28;20209;-77
2021/12/01 11:20:51;;;;;;;2.13;2.03;;;;;;;9.71;63.70;95388.56;5097672;28;20212;-74
2021/12/01 11:23:21;;;;;;;3.17;2.97;;;;;;;9.62;63.28;95379.03;5102971;28;20201;-77
2021/12/01 11:25:51;;;;;;;2.40;2.20;;;;;;;9.43;63.04;95377.56;5103730;28;20220;-78
2021/12/01 11:28:20;;;;;;;2.23;2.13;;;;;;;9.63;62.97;95374.56;5113199;28;20208;-76
2021/12/01 11:30:48;;;;;;;2.37;2.23;;;;;;;9.53;64.04;95371.31;5114693;28;20211;-74
2021/12/01 11:33:17;;;;;;;2.37;2.27;;;;;;;9.46;63.84;95365.84;5107879;28;20310;-77
2021/12/01 11:35:45;;;;;;;2.00;1.90;;;;;;;9.49;66.28;95361.06;5101408;28;20274;-77
2021/12/01 11:38:13;;;;;;;2.20;2.10;;;;;;;9.47;67.34;95359.56;5114139;28;20208;-76
2021/12/01 11:40:40;;;;;;;2.30;2.10;;;;;;;9.40;66.70;95348.06;5102982;28;20209;-76
2021/12/01 11:43:10;;;;;;;2.63;2.40;;;;;;;9.37;66.51;95340.47;5096260;28;20286;-74
2021/12/01 11:45:37;;;;;;;2.63;1.93;;;;;;;9.35;66.56;95342.47;5108715;28;20223;-75
2021/12/01 11:48:05;;;;;;;3.57;2.20;;;;;;;9.30;65.72;95342.97;5109425;28;20202;-75